Time;durP1;ratioP1;P1;durP2;ratioP2;P2;SDS_P1;SDS_P2;PMS_P1;PMS_P2;Temp;Humidity;BMP_temperature;BMP_pressure;BME280_temperature;BME280_humidity;BME280_pressure;Samples;Min_cycle;Max_cycle;Signal;HPM_P1;HPM_P2
2023/06/07 00:02:04;;;;;;;1.70;1.70;;;21.80;67.80;;;;;;5006936;28;20491;-74
2023/06/07 00:04:30;;;;;;;1.80;1.70;;;21.80;67.90;;;;;;5003421;28;20046;-73
2023/06/07 00:07:01;;;;;;;1.90;1.80;;;21.80;67.80;;;;;;4987850;28;20030;-74
2023/06/07 00:09:28;;;;;;;1.92;1.83;;;21.80;67.90;;;;;;5003645;28;20038;-74
2023/06/07 00:11:54;;;;;;;1.80;1.70;;;21.80;67.90;;;;;;5000787;28;20040;-74
2023/06/07 00:14:20;;;;;;;1.90;1.80;;;21.80;67.90;;;;;;4990698;28;20454;-74
2023/06/07 00:16:47;;;;;;;1.73;1.63;;;21.80;67.80;;;;;;5005781;28;20030;-73
2023/06/07 00:19:13;;;;;;;2.20;2.10;;;21.80;67.80;;;;;;5001197;28;20054;-74
2023/06/07 00:21:38;;;;;;;1.90;1.80;;;21.80;67.90;;;;;;5003506;28;20096;-74
2023/06/07 00:24:04;;;;;;;1.50;1.40;;;21.80;67.80;;;;;;4985723;28;20042;-74
2023/06/07 00:26:30;;;;;;;1.67;1.58;;;21.80;67.80;;;;;;5009027;28;20184;-73
2023/06/07 00:28:56;;;;;;;2.00;1.90;;;21.80;67.80;;;;;;5019284;28;20085;-74
2023/06/07 00:31:21;;;;;;;2.05;1.95;;;21.80;67.80;;;;;;5004838;28;20038;-73
2023/06/07 00:33:47;;;;;;;1.60;1.60;;;21.80;67.80;;;;;;5001238;28;20038;-74
2023/06/07 00:36:12;;;;;;;1.70;1.65;;;21.80;67.90;;;;;;4999879;28;20550;-73
2023/06/07 00:38:38;;;;;;;1.48;1.48;;;21.80;67.90;;;;;;5004070;28;20114;-74
2023/06/07 00:41:03;;;;;;;1.45;1.45;;;21.80;67.90;;;;;;5002024;28;20049;-74
2023/06/07 00:43:29;;;;;;;1.90;1.80;;;21.70;67.80;;;;;;5003264;28;20046;-73
2023/06/07 00:45:55;;;;;;;1.83;1.75;;;21.80;67.90;;;;;;5000900;28;20089;-74
2023/06/07 00:48:20;;;;;;;1.90;1.80;;;21.80;67.80;;;;;;5001241;28;20037;-73
2023/06/07 00:50:46;;;;;;;2.15;2.05;;;21.80;67.90;;;;;;5003231;28;20531;-73
2023/06/07 00:53:11;;;;;;;1.73;1.63;;;21.80;67.80;;;;;;5005742;28;20038;-73
2023/06/07 00:55:37;;;;;;;1.60;1.60;;;21.80;67.80;;;;;;5001304;28;20069;-74
2023/06/07 00:58:03;;;;;;;1.50;1.50;;;21.70;67.70;;;;;;5003489;28;20038;-74
2023/06/07 01:00:28;;;;;;;1.67;1.67;;;21.70;67.80;;;;;;5005485;28;20061;-73
2023/06/07 01:02:55;;;;;;;2.05;1.95;;;21.70;67.80;;;;;;5002854;28;20508;-75
2023/06/07 01:05:21;;;;;;;1.80;1.73;;;21.70;67.80;;;;;;5005490;28;20099;-73
2023/06/07 01:07:47;;;;;;;1.75;1.65;;;21.80;67.90;;;;;;5004655;28;20462;-73
2023/06/07 01:10:13;;;;;;;1.48;1.40;;;21.80;67.90;;;;;;4999033;28;20065;-73
2023/06/07 01:12:39;;;;;;;1.65;1.55;;;21.80;67.90;;;;;;5003097;28;20519;-74
2023/06/07 01:15:05;;;;;;;2.10;1.75;;;21.70;67.90;;;;;;4985271;28;20050;-74
2023/06/07 01:17:31;;;;;;;2.35;1.60;;;21.80;68.10;;;;;;4985601;28;20046;-74
2023/06/07 01:19:58;;;;;;;1.70;1.60;;;21.80;67.80;;;;;;4987133;28;20045;-74
2023/06/07 01:22:27;;;;;;;1.80;1.70;;;21.70;67.80;;;;;;5015425;28;20144;-74
2023/06/07 01:24:53;;;;;;;2.30;1.60;;;21.70;67.90;;;;;;4987742;28;20415;-74
2023/06/07 01:27:21;;;;;;;1.90;1.80;;;21.70;67.80;;;;;;5003026;28;20073;-74
2023/06/07 01:29:48;;;;;;;2.00;1.90;;;21.70;67.90;;;;;;4986579;28;20077;-74
2023/06/07 01:32:14;;;;;;;1.95;1.85;;;21.70;67.90;;;;;;5004863;28;20073;-74
2023/06/07 01:34:39;;;;;;;2.00;1.90;;;21.70;67.90;;;;;;4999748;28;20053;-75
2023/06/07 01:37:05;;;;;;;1.65;1.65;;;21.70;67.90;;;;;;5003171;28;20137;-74
2023/06/07 01:39:31;;;;;;;1.85;1.80;;;21.70;67.80;;;;;;5003270;28;20056;-74
2023/06/07 01:41:56;;;;;;;1.60;1.60;;;21.70;67.90;;;;;;5017448;28;20042;-76
2023/06/07 01:44:22;;;;;;;1.95;1.85;;;21.70;67.90;;;;;;5006157;28;20100;-74
2023/06/07 01:46:47;;;;;;;3.10;1.60;;;21.70;67.80;;;;;;5002325;28;20519;-74
2023/06/07 01:49:13;;;;;;;1.70;1.60;;;21.70;67.80;;;;;;5000670;28;20092;-75
2023/06/07 01:51:39;;;;;;;1.85;1.75;;;21.70;67.90;;;;;;5003913;28;20042;-74
2023/06/07 01:54:05;;;;;;;1.67;1.67;;;21.70;68.00;;;;;;5018969;28;20423;-75
2023/06/07 01:57:00;;;;;;;1.80;1.70;;;21.70;67.90;;;;;;4987421;28;20045;-74
2023/06/07 01:59:34;;;;;;;1.70;1.60;;;21.70;67.90;;;;;;5026022;28;20056;-74
2023/06/07 02:02:05;;;;;;;2.30;2.20;;;21.70;67.90;;;;;;4989282;28;20030;-74
2023/06/07 02:04:32;;;;;;;1.40;1.40;;;21.70;67.90;;;;;;5019125;28;20038;-74
2023/06/07 02:07:00;;;;;;;1.30;1.30;;;21.70;68.00;;;;;;4975317;28;20087;-74
2023/06/07 02:09:26;;;;;;;1.50;1.50;;;21.70;68.30;;;;;;5005599;28;20292;-74
2023/06/07 02:11:51;;;;;;;1.80;1.70;;;21.70;68.30;;;;;;4991251;28;20139;-74
2023/06/07 02:14:17;;;;;;;1.70;1.60;;;21.70;68.00;;;;;;4993223;28;20041;-75
2023/06/07 02:16:43;;;;;;;1.40;1.40;;;21.70;68.30;;;;;;4992001;28;20054;-74
2023/06/07 02:19:09;;;;;;;1.45;1.40;;;21.70;68.30;;;;;;5003465;28;20053;-74
2023/06/07 02:21:36;;;;;;;1.65;1.60;;;21.70;68.70;;;;;;5008852;28;20059;-74
2023/06/07 02:24:02;;;;;;;1.75;1.65;;;21.70;68.30;;;;;;5024444;28;20082;-75
2023/06/07 02:26:28;;;;;;;2.00;1.90;;;21.70;68.60;;;;;;5025777;28;20045;-74
2023/06/07 02:28:53;;;;;;;1.92;1.83;;;21.70;68.60;;;;;;5008786;28;20118;-74
2023/06/07 02:31:20;;;;;;;2.20;2.10;;;21.70;68.30;;;;;;5005622;28;20128;-74
2023/06/07 02:33:48;;;;;;;1.77;1.70;;;21.70;69.10;;;;;;4992450;28;20071;-74
2023/06/07 02:36:14;;;;;;;2.45;1.85;;;21.70;68.40;;;;;;5000542;28;20054;-74
2023/06/07 02:38:40;;;;;;;2.17;2.08;;;21.70;68.40;;;;;;4973447;28;20076;-74
2023/06/07 02:41:05;;;;;;;1.88;1.77;;;21.70;68.20;;;;;;5006433;28;20049;-74
2023/06/07 02:43:31;;;;;;;1.60;1.55;;;21.70;68.30;;;;;;5007030;28;20037;-74
2023/06/07 02:45:56;;;;;;;2.10;2.00;;;21.70;68.30;;;;;;4990799;28;20143;-74
2023/06/07 02:48:22;;;;;;;1.88;1.77;;;21.70;68.40;;;;;;5003894;28;20077;-74
2023/06/07 02:50:48;;;;;;;1.80;1.70;;;21.70;68.30;;;;;;4988960;28;20440;-74
2023/06/07 02:53:13;;;;;;;1.73;1.63;;;21.70;68.20;;;;;;4989163;28;20045;-75
2023/06/07 02:55:39;;;;;;;1.90;1.80;;;21.70;68.30;;;;;;5003819;28;20496;-74
2023/06/07 02:58:05;;;;;;;1.67;1.58;;;21.70;68.10;;;;;;5005588;28;20046;-74
2023/06/07 03:00:31;;;;;;;1.88;1.77;;;21.70;68.20;;;;;;5005931;28;20500;-74
2023/06/07 03:02:57;;;;;;;1.55;1.52;;;21.60;68.00;;;;;;5007738;28;20447;-74
2023/06/07 03:05:23;;;;;;;1.60;1.60;;;21.70;68.10;;;;;;5005787;28;20519;-74
2023/06/07 03:07:50;;;;;;;2.08;1.50;;;21.70;68.20;;;;;;5000446;28;20584;-74
2023/06/07 03:10:16;;;;;;;1.48;1.40;;;21.70;68.00;;;;;;5004239;28;20046;-74
2023/06/07 03:12:41;;;;;;;1.50;1.40;;;21.70;68.20;;;;;;5003924;28;20050;-74
2023/06/07 03:15:10;;;;;;;1.50;1.40;;;21.70;68.10;;;;;;4990005;28;20038;-75
2023/06/07 03:17:36;;;;;;;1.55;1.45;;;21.70;68.00;;;;;;5005279;28;20050;-74
2023/06/07 03:20:05;;;;;;;1.40;1.40;;;21.60;67.90;;;;;;5006695;28;20071;-74
2023/06/07 03:22:31;;;;;;;1.55;1.45;;;21.60;67.90;;;;;;4982377;28;20057;-74
2023/06/07 03:24:57;;;;;;;1.75;1.67;;;21.60;67.80;;;;;;5003253;28;20042;-74
2023/06/07 03:27:23;;;;;;;1.70;1.60;;;21.60;67.90;;;;;;5003239;28;20559;-74
2023/06/07 03:29:50;;;;;;;1.40;1.40;;;21.60;68.00;;;;;;5004978;28;20080;-74
2023/06/07 03:32:15;;;;;;;2.08;1.52;;;21.60;68.00;;;;;;5021083;28;20050;-74
2023/06/07 03:34:42;;;;;;;1.27;1.27;;;21.60;68.00;;;;;;5003331;28;20652;-74
2023/06/07 03:37:08;;;;;;;1.42;1.42;;;21.60;68.00;;;;;;5001146;28;20037;-74
2023/06/07 03:39:35;;;;;;;1.45;1.45;;;21.60;68.00;;;;;;5004959;28;20060;-74
2023/06/07 03:42:01;;;;;;;1.50;1.50;;;21.60;68.00;;;;;;5018930;28;20192;-74
2023/06/07 03:44:26;;;;;;;1.50;1.50;;;21.60;67.90;;;;;;5006986;28;20555;-74
2023/06/07 03:46:52;;;;;;;1.42;1.42;;;21.60;67.90;;;;;;5018598;28;20127;-74
2023/06/07 03:49:18;;;;;;;1.60;1.40;;;21.60;68.00;;;;;;5001041;28;20400;-74
2023/06/07 03:51:43;;;;;;;1.45;1.45;;;21.60;68.00;;;;;;5003764;28;20030;-74
2023/06/07 03:54:10;;;;;;;1.45;1.45;;;21.60;68.00;;;;;;5002868;28;20051;-75
2023/06/07 03:56:35;;;;;;;1.65;1.55;;;21.60;68.00;;;;;;5005529;28;20068;-74
2023/06/07 03:59:01;;;;;;;1.90;1.80;;;21.60;68.00;;;;;;5021285;28;20049;-74
2023/06/07 04:01:27;;;;;;;1.73;1.63;;;21.60;68.00;;;;;;5003458;28;20096;-74
2023/06/07 04:03:53;;;;;;;1.35;1.27;;;21.60;68.00;;;;;;5003062;28;20396;-74
2023/06/07 04:06:24;;;;;;;1.45;1.45;;;21.60;67.90;;;;;;5003940;28;20450;-75
2023/06/07 04:08:51;;;;;;;1.60;1.50;;;21.60;67.90;;;;;;5002933;28;20049;-74
2023/06/07 04:11:17;;;;;;;1.33;1.30;;;21.60;68.00;;;;;;5004978;28;20153;-75
2023/06/07 04:13:44;;;;;;;1.88;1.77;;;21.60;68.00;;;;;;4989557;28;20133;-74
2023/06/07 04:16:10;;;;;;;1.50;1.50;;;21.60;68.00;;;;;;5004652;28;20508;-74
2023/06/07 04:18:36;;;;;;;1.90;1.80;;;21.60;67.90;;;;;;5000719;28;20048;-74
2023/06/07 04:21:01;;;;;;;1.73;1.63;;;21.60;68.00;;;;;;5002011;28;20171;-74
2023/06/07 04:23:27;;;;;;;2.20;2.10;;;21.60;67.90;;;;;;5018120;28;20046;-74
2023/06/07 04:25:55;;;;;;;1.98;1.88;;;21.60;67.90;;;;;;4998838;28;20080;-74
2023/06/07 04:28:23;;;;;;;2.00;1.90;;;21.60;67.90;;;;;;5001737;28;20038;-74
2023/06/07 04:30:53;;;;;;;1.73;1.63;;;21.60;67.80;;;;;;5004309;28;20064;-74
2023/06/07 04:33:19;;;;;;;1.55;1.45;;;21.60;67.80;;;;;;5001584;28;20038;-74
2023/06/07 04:35:46;;;;;;;1.80;1.70;;;21.60;67.80;;;;;;5004570;28;20038;-74
2023/06/07 04:38:15;;;;;;;1.52;1.42;;;21.60;67.80;;;;;;5005699;28;20042;-75
2023/06/07 04:40:42;;;;;;;1.58;1.50;;;21.60;67.80;;;;;;5004575;28;20049;-74
2023/06/07 04:43:08;;;;;;;1.80;1.70;;;21.60;68.60;;;;;;5000805;28;20374;-75
2023/06/07 04:45:36;;;;;;;4.28;3.92;;;21.60;67.80;;;;;;5001579;28;20038;-75
2023/06/07 04:48:02;;;;;;;8.68;7.22;;;21.40;63.10;;;;;;4651604;28;9999960;-75
2023/06/07 04:50:29;;;;;;;8.82;7.30;;;20.30;62.70;;;;;;5003910;28;20057;-74
2023/06/07 04:53:00;;;;;;;9.60;8.02;;;18.80;67.60;;;;;;4654538;28;9999722;-73
2023/06/07 04:55:31;;;;;;;11.75;8.50;;;18.10;70.50;;;;;;4995666;28;20654;-73
2023/06/07 04:58:00;;;;;;;12.07;7.80;;;17.80;71.90;;;;;;5014436;28;20064;-73
2023/06/07 05:00:26;;;;;;;11.35;8.48;;;17.50;73.00;;;;;;5000145;28;20041;-74
2023/06/07 05:02:52;;;;;;;9.13;8.07;;;17.60;73.40;;;;;;4996972;28;20060;-73
2023/06/07 05:05:19;;;;;;;9.35;7.88;;;17.50;74.20;;;;;;4999038;28;20050;-73
2023/06/07 05:07:45;;;;;;;10.90;8.50;;;17.20;74.40;;;;;;4996984;28;20403;-72
2023/06/07 05:10:11;;;;;;;9.13;8.23;;;17.20;74.80;;;;;;4996203;28;20073;-73
2023/06/07 05:12:37;;;;;;;12.70;9.15;;;17.10;75.30;;;;;;4996179;28;20200;-72
2023/06/07 05:15:03;;;;;;;10.88;8.55;;;17.20;75.80;;;;;;4997196;28;20038;-72
2023/06/07 05:17:29;;;;;;;11.30;8.35;;;17.00;76.00;;;;;;4997535;28;20041;-73
2023/06/07 05:19:55;;;;;;;11.73;8.50;;;17.10;75.80;;;;;;4995553;28;20351;-73
2023/06/07 05:22:21;;;;;;;11.07;8.10;;;17.10;76.10;;;;;;4998401;28;20050;-73
2023/06/07 05:24:47;;;;;;;10.05;8.80;;;17.00;76.40;;;;;;4999011;28;20494;-72
2023/06/07 05:27:14;;;;;;;9.98;8.52;;;17.00;76.30;;;;;;5000929;28;20523;-74
2023/06/07 05:29:39;;;;;;;12.05;8.32;;;16.90;77.10;;;;;;5000577;28;20043;-73
2023/06/07 05:32:05;;;;;;;14.77;8.63;;;16.80;77.50;;;;;;5000692;28;20397;-72
2023/06/07 05:34:31;;;;;;;12.13;8.77;;;16.80;77.80;;;;;;4999191;28;20046;-73
2023/06/07 05:36:58;;;;;;;10.55;8.80;;;16.80;77.70;;;;;;4999027;28;20050;-72
2023/06/07 05:39:23;;;;;;;12.95;8.68;;;16.80;78.40;;;;;;4995773;28;20145;-73
2023/06/07 05:41:50;;;;;;;13.10;9.23;;;16.80;77.90;;;;;;4999044;28;20042;-72
2023/06/07 05:44:16;;;;;;;12.82;8.98;;;16.90;78.10;;;;;;4996294;28;20039;-74
2023/06/07 05:46:41;;;;;;;12.50;8.35;;;17.00;77.90;;;;;;4998592;28;20458;-73
2023/06/07 05:49:07;;;;;;;11.50;8.63;;;16.90;78.40;;;;;;4997424;28;20144;-73
2023/06/07 05:51:32;;;;;;;11.55;10.10;;;16.90;78.20;;;;;;4984641;28;20109;-72
2023/06/07 05:53:58;;;;;;;12.25;9.23;;;16.90;78.30;;;;;;4997990;28;20045;-73
2023/06/07 05:56:24;;;;;;;14.18;8.68;;;16.80;78.60;;;;;;4999088;28;20053;-72
2023/06/07 05:58:50;;;;;;;11.00;9.35;;;16.80;79.10;;;;;;5000736;28;20046;-73
2023/06/07 06:01:17;;;;;;;11.75;9.07;;;16.80;79.10;;;;;;4998038;28;20040;-73
2023/06/07 06:03:42;;;;;;;12.27;9.05;;;16.80;79.20;;;;;;4999197;28;20057;-73
2023/06/07 06:06:15;;;;;;;11.85;9.50;;;16.90;79.30;;;;;;4984701;28;20051;-73
2023/06/07 06:08:41;;;;;;;10.80;8.38;;;16.80;79.50;;;;;;5011961;28;20437;-73
2023/06/07 06:11:08;;;;;;;13.65;8.65;;;16.90;79.60;;;;;;5000399;28;20773;-73
2023/06/07 06:13:34;;;;;;;10.07;8.73;;;16.90;79.80;;;;;;4983593;28;20054;-73
2023/06/07 06:16:00;;;;;;;10.20;8.18;;;16.80;80.10;;;;;;5000125;28;20034;-73
2023/06/07 06:18:25;;;;;;;9.52;8.63;;;16.90;80.30;;;;;;4997421;28;20060;-73
2023/06/07 06:20:51;;;;;;;10.30;9.20;;;16.90;80.40;;;;;;5001864;28;20092;-74
2023/06/07 06:23:16;;;;;;;13.93;9.65;;;17.10;80.60;;;;;;5014918;28;20103;-76
2023/06/07 06:25:42;;;;;;;13.48;9.57;;;17.20;79.50;;;;;;4985681;28;20050;-74
2023/06/07 06:28:08;;;;;;;11.40;8.85;;;17.30;79.40;;;;;;5003213;28;20515;-76
2023/06/07 06:30:33;;;;;;;13.52;9.55;;;17.20;79.80;;;;;;4999575;28;20046;-75
2023/06/07 06:32:59;;;;;;;11.82;8.60;;;17.30;79.40;;;;;;5001588;28;20046;-75
2023/06/07 06:35:27;;;;;;;10.07;9.02;;;17.20;79.90;;;;;;5003547;28;20543;-75
2023/06/07 06:37:52;;;;;;;15.50;9.02;;;17.20;79.90;;;;;;5003170;28;20034;-75
2023/06/07 06:40:20;;;;;;;10.43;9.10;;;17.40;79.70;;;;;;5001122;28;20462;-75
2023/06/07 06:42:46;;;;;;;10.85;8.75;;;17.50;79.40;;;;;;5003785;28;20044;-75
2023/06/07 06:45:11;;;;;;;16.48;9.60;;;17.50;79.20;;;;;;5003904;28;20046;-74
2023/06/07 06:47:41;;;;;;;10.02;8.43;;;17.30;79.80;;;;;;5006051;28;20060;-74
2023/06/07 06:50:10;;;;;;;11.30;8.95;;;17.40;80.00;;;;;;5005725;28;20050;-75
2023/06/07 06:52:37;;;;;;;10.98;8.52;;;17.40;79.80;;;;;;5004318;28;20054;-75
2023/06/07 06:55:03;;;;;;;10.38;8.57;;;17.50;79.40;;;;;;5004765;28;20124;-75
2023/06/07 06:57:28;;;;;;;9.82;8.85;;;17.50;79.60;;;;;;5004291;28;20085;-75
2023/06/07 06:59:54;;;;;;;9.35;8.05;;;17.50;79.90;;;;;;5005331;28;20649;-77
2023/06/07 07:02:19;;;;;;;10.90;9.18;;;17.50;79.90;;;;;;4975605;28;20135;-76
2023/06/07 07:04:45;;;;;;;10.70;8.63;;;17.70;80.10;;;;;;4966537;28;20050;-76
2023/06/07 07:07:11;;;;;;;11.73;9.88;;;17.70;79.90;;;;;;4995778;28;20045;-75
2023/06/07 07:09:36;;;;;;;10.07;8.68;;;17.80;79.60;;;;;;5005104;28;20523;-75
2023/06/07 07:12:02;;;;;;;10.15;8.55;;;;;;;;;;5019611;28;20061;-74
2023/06/07 07:14:28;;;;;;;9.98;8.45;;;18.00;99.90;;;;;;5008170;28;20048;-75
2023/06/07 07:16:54;;;;;;;10.27;8.43;;;18.10;99.90;;;;;;5001534;28;20046;-75
2023/06/07 07:19:19;;;;;;;10.23;8.20;;;18.20;99.90;;;;;;5002596;28;20038;-77
2023/06/07 07:21:45;;;;;;;8.20;7.28;;;18.10;99.90;;;;;;5002563;28;20041;-75
2023/06/07 07:24:10;;;;;;;9.20;7.60;;;18.10;99.90;;;;;;5001034;28;20520;-75
2023/06/07 07:26:36;;;;;;;9.75;7.68;;;18.20;99.90;;;;;;5003922;28;20412;-75
2023/06/07 07:29:02;;;;;;;10.90;6.55;;;18.30;99.90;;;;;;5008421;28;20037;-75
2023/06/07 07:31:30;;;;;;;7.97;7.18;;;18.30;99.90;;;;;;5003652;28;20034;-75
2023/06/07 07:33:56;;;;;;;7.95;7.25;;;18.40;99.90;;;;;;5003771;28;20049;-75
2023/06/07 07:36:23;;;;;;;8.55;7.22;;;18.50;99.90;;;;;;5002760;28;20048;-75
2023/06/07 07:38:51;;;;;;;7.80;5.85;;;18.60;99.90;;;;;;5004363;28;20046;-74
2023/06/07 07:41:17;;;;;;;6.95;6.25;;;18.80;99.90;;;;;;5016521;28;20514;-75
2023/06/07 07:43:42;;;;;;;6.43;5.80;;;18.80;99.90;;;;;;5000177;28;20046;-75
2023/06/07 07:46:08;;;;;;;9.55;7.00;;;18.90;99.90;;;;;;5002438;28;20546;-75
2023/06/07 07:48:34;;;;;;;9.27;6.15;;;19.00;99.90;;;;;;5005872;28;20469;-74
2023/06/07 07:50:59;;;;;;;6.30;5.70;;;19.10;99.90;;;;;;5004567;28;20111;-76
2023/06/07 07:53:25;;;;;;;6.57;4.65;;;19.20;99.90;;;;;;5002947;28;20049;-76
2023/06/07 07:55:51;;;;;;;7.75;5.38;;;19.30;99.90;;;;;;5002398;28;20139;-76
2023/06/07 07:58:16;;;;;;;7.60;5.47;;;19.30;99.90;;;;;;5002932;28;20038;-79
2023/06/07 08:00:42;;;;;;;6.18;5.50;;;19.40;99.90;;;;;;5001378;28;20049;-77
2023/06/07 08:03:08;;;;;;;5.05;4.60;;;19.50;99.90;;;;;;5017638;28;20048;-78
2023/06/07 08:05:33;;;;;;;5.72;5.22;;;19.50;99.90;;;;;;5004127;28;20080;-78
2023/06/07 08:08:00;;;;;;;4.80;4.40;;;19.50;99.90;;;;;;5002872;28;20492;-78
2023/06/07 08:10:26;;;;;;;7.78;4.60;;;19.60;99.90;;;;;;5002861;28;20040;-77
2023/06/07 08:12:52;;;;;;;4.28;3.97;;;19.60;99.90;;;;;;5003956;28;20049;-78
2023/06/07 08:15:17;;;;;;;5.22;3.67;;;19.70;99.90;;;;;;5005172;28;20030;-78
2023/06/07 08:17:43;;;;;;;5.80;4.15;;;19.70;99.90;;;;;;5002924;28;20181;-78
2023/06/07 08:20:09;;;;;;;4.05;3.75;;;19.70;99.90;;;;;;5019181;28;20453;-77
2023/06/07 08:22:37;;;;;;;4.45;4.05;;;19.80;99.90;;;;;;5001433;28;20121;-77
2023/06/07 08:25:04;;;;;;;4.00;3.60;;;19.80;99.90;;;;;;5002575;28;20046;-78
2023/06/07 08:27:29;;;;;;;4.30;4.07;;;19.90;99.90;;;;;;5001296;28;20042;-77
2023/06/07 08:29:55;;;;;;;4.47;4.07;;;19.90;99.90;;;;;;5002780;28;20037;-78
2023/06/07 08:32:21;;;;;;;4.90;4.50;;;20.00;99.90;;;;;;4996630;28;20484;-76
2023/06/07 08:34:47;;;;;;;4.57;4.15;;;20.00;99.90;;;;;;4985061;28;20103;-76
2023/06/07 08:37:12;;;;;;;3.92;3.60;;;20.10;99.90;;;;;;4997326;28;20049;-77
2023/06/07 08:39:38;;;;;;;4.07;3.78;;;20.20;99.90;;;;;;5001529;28;20048;-77
2023/06/07 08:42:04;;;;;;;4.43;3.97;;;20.20;99.90;;;;;;5003713;28;20568;-76
2023/06/07 08:44:30;;;;;;;3.58;3.38;;;20.20;99.90;;;;;;5014554;28;20034;-76
2023/06/07 08:46:57;;;;;;;3.95;3.75;;;20.30;99.90;;;;;;5009180;28;20044;-77
2023/06/07 08:49:26;;;;;;;3.63;3.33;;;20.30;99.90;;;;;;4994917;28;20447;-77
2023/06/07 08:51:53;;;;;;;3.95;3.38;;;20.30;99.90;;;;;;5014708;28;20076;-77
2023/06/07 08:54:20;;;;;;;4.20;3.70;;;20.40;99.90;;;;;;4999433;28;20049;-76
2023/06/07 08:56:47;;;;;;;4.22;3.92;;;20.40;99.90;;;;;;5001110;28;20045;-77
2023/06/07 08:59:12;;;;;;;3.75;3.40;;;20.40;99.90;;;;;;5005082;28;20052;-79
2023/06/07 09:01:38;;;;;;;3.58;3.33;;;20.60;99.90;;;;;;4982678;28;20030;-80
2023/06/07 09:04:04;;;;;;;3.75;3.45;;;20.60;99.90;;;;;;5004010;28;20038;-81
2023/06/07 09:06:29;;;;;;;3.95;3.53;;;20.50;99.90;;;;;;5000904;28;20037;-79
2023/06/07 09:08:56;;;;;;;3.90;3.60;;;20.50;99.90;;;;;;5001343;28;20050;-80
2023/06/07 09:11:22;;;;;;;3.70;3.40;;;20.50;99.90;;;;;;5005577;28;20049;-80
2023/06/07 09:13:47;;;;;;;3.92;3.67;;;20.50;99.90;;;;;;5003009;28;20041;-80
2023/06/07 09:16:13;;;;;;;3.90;3.60;;;20.50;99.90;;;;;;5020128;28;20046;-80
2023/06/07 09:18:42;;;;;;;3.65;3.40;;;20.50;99.90;;;;;;5001611;28;20129;-80
2023/06/07 09:21:26;;;;;;;4.18;3.65;;;20.50;99.90;;;;;;5003145;28;20042;-80
2023/06/07 09:23:53;;;;;;;4.00;3.55;;;20.50;99.90;;;;;;5002509;28;20045;-80
2023/06/07 09:26:20;;;;;;;3.55;3.35;;;20.50;99.90;;;;;;5000704;28;20034;-80
2023/06/07 09:28:46;;;;;;;3.83;3.63;;;20.50;99.90;;;;;;5001712;28;20052;-80
2023/06/07 09:31:12;;;;;;;3.83;3.50;;;20.60;99.90;;;;;;5020309;28;20034;-80
2023/06/07 09:33:37;;;;;;;4.20;3.85;;;20.60;99.90;;;;;;5001048;28;20133;-80
2023/06/07 09:36:03;;;;;;;3.45;3.15;;;20.60;99.90;;;;;;4991036;28;20423;-80
2023/06/07 09:38:28;;;;;;;3.58;3.38;;;20.60;99.90;;;;;;5003886;28;20074;-79
2023/06/07 09:40:57;;;;;;;3.45;3.15;;;20.60;99.90;;;;;;5002374;28;20136;-80
2023/06/07 09:43:22;;;;;;;3.38;3.17;;;20.60;99.90;;;;;;5003741;28;20419;-79
2023/06/07 09:45:54;;;;;;;3.65;3.42;;;20.60;99.90;;;;;;5001062;28;20038;-80
2023/06/07 09:48:20;;;;;;;3.85;3.55;;;20.70;99.90;;;;;;5002900;28;20053;-79
2023/06/07 09:50:58;;;;;;;3.17;2.95;;;20.70;99.90;;;;;;5002365;28;20053;-79
2023/06/07 09:53:24;;;;;;;3.20;3.00;;;20.70;99.90;;;;;;5002697;28;20042;-80
2023/06/07 09:55:49;;;;;;;5.50;3.50;;;20.70;99.90;;;;;;4999151;28;20095;-79
2023/06/07 09:58:19;;;;;;;3.67;3.38;;;20.80;99.90;;;;;;4652194;28;10000118;-78
2023/06/07 10:00:45;;;;;;;3.20;3.00;;;20.80;99.90;;;;;;4998478;28;20054;-80
2023/06/07 10:03:12;;;;;;;7.72;3.60;;;20.90;99.90;;;;;;4996607;28;20046;-79
2023/06/07 10:05:38;;;;;;;3.20;3.00;;;20.90;99.90;;;;;;4995308;28;20138;-79
2023/06/07 10:08:04;;;;;;;3.53;3.17;;;21.00;99.90;;;;;;4995459;28;20537;-79
2023/06/07 10:10:30;;;;;;;3.05;2.92;;;21.00;99.90;;;;;;4999151;28;20669;-82
2023/06/07 10:12:55;;;;;;;3.97;3.72;;;21.10;99.90;;;;;;4999923;28;20360;-82
2023/06/07 10:15:24;;;;;;;3.83;3.53;;;21.10;99.90;;;;;;4998522;28;20118;-83
2023/06/07 10:18:00;;;;;;;3.17;2.97;;;21.10;99.90;;;;;;4996650;28;20512;-81
2023/06/07 10:20:43;;;;;;;3.75;3.55;;;21.20;99.90;;;;;;5005089;28;20093;-81
2023/06/07 10:23:12;;;;;;;4.38;3.30;;;21.10;99.90;;;;;;4987656;28;20104;-81
2023/06/07 10:25:51;;;;;;;3.88;3.58;;;21.20;99.90;;;;;;5000953;28;20049;-82
2023/06/07 10:28:40;;;;;;;4.13;3.30;;;21.20;99.90;;;;;;5004595;28;20080;-81
2023/06/07 10:31:09;;;;;;;3.78;3.58;;;21.20;99.90;;;;;;4997305;28;20057;-80
2023/06/07 10:33:34;;;;;;;3.83;3.53;;;21.20;99.90;;;;;;5000036;28;20098;-81
2023/06/07 10:36:00;;;;;;;3.92;3.65;;;21.20;99.90;;;;;;4989964;28;20393;-81
2023/06/07 10:38:33;;;;;;;3.60;3.40;;;21.30;99.90;;;;;;5002958;28;20048;-80
2023/06/07 10:40:59;;;;;;;3.63;3.35;;;21.30;99.90;;;;;;5001506;28;20057;-81
2023/06/07 10:43:26;;;;;;;3.88;3.67;;;21.30;99.90;;;;;;5003143;28;20157;-80
2023/06/07 10:46:25;;;;;;;3.67;3.40;;;21.30;99.90;;;;;;4996164;28;20283;-80
2023/06/07 10:48:51;;;;;;;3.55;3.33;;;21.30;99.90;;;;;;4997394;28;20380;-82
2023/06/07 10:51:17;;;;;;;4.82;3.80;;;21.40;99.90;;;;;;5020640;28;20542;-85
2023/06/07 10:53:52;;;;;;;4.13;3.65;;;21.40;99.90;;;;;;5002126;28;20041;-83
2023/06/07 10:56:29;;;;;;;4.40;3.65;;;21.40;99.90;;;;;;4992519;28;20081;-78
2023/06/07 10:58:56;;;;;;;3.70;3.50;;;21.50;99.90;;;;;;5006371;28;20049;-80
2023/06/07 11:01:23;;;;;;;3.90;3.10;;;21.50;99.90;;;;;;5005395;28;20033;-82
2023/06/07 11:03:49;;;;;;;5.10;3.08;;;21.50;99.90;;;;;;4644439;28;10000539;-81
2023/06/07 11:06:15;;;;;;;3.65;3.38;;;21.50;99.90;;;;;;4997597;28;20053;-78
2023/06/07 11:08:40;;;;;;;3.35;3.15;;;21.50;99.90;;;;;;4999717;28;20384;-80
2023/06/07 11:11:40;;;;;;;3.80;3.40;;;21.50;99.90;;;;;;5007136;28;20038;-79
2023/06/07 11:14:06;;;;;;;3.80;3.50;;;21.50;99.90;;;;;;5019008;28;20042;-78
2023/06/07 11:16:31;;;;;;;3.50;3.20;;;21.50;99.90;;;;;;4998117;28;20096;-78
2023/06/07 11:19:00;;;;;;;3.65;3.35;;;21.50;99.90;;;;;;5005165;28;20046;-80
2023/06/07 11:21:30;;;;;;;2.72;2.63;;;21.60;99.80;;;;;;4999250;28;20591;-80
2023/06/07 11:24:13;;;;;;;3.30;3.10;;;21.60;99.80;;;;;;5002207;28;20570;-79
2023/06/07 11:26:40;;;;;;;3.38;3.10;;;21.60;99.70;;;;;;5004776;28;20442;-81
2023/06/07 11:29:05;;;;;;;3.42;3.13;;;21.50;99.60;;;;;;4989538;28;20443;-79
2023/06/07 11:31:31;;;;;;;3.15;3.05;;;21.60;99.60;;;;;;5003798;28;20045;-78
2023/06/07 11:33:57;;;;;;;3.25;3.13;;;21.60;99.60;;;;;;5001523;28;20410;-79
2023/06/07 11:36:22;;;;;;;4.55;3.58;;;21.60;99.40;;;;;;5001985;28;20054;-80
2023/06/07 11:38:54;;;;;;;3.42;3.22;;;21.60;99.30;;;;;;5017536;28;20535;-78
2023/06/07 11:41:21;;;;;;;3.28;3.08;;;21.60;99.30;;;;;;5002695;28;20045;-78
2023/06/07 11:43:47;;;;;;;3.78;3.10;;;21.60;99.20;;;;;;5017690;28;20041;-76
2023/06/07 11:46:16;;;;;;;3.28;3.10;;;21.60;99.00;;;;;;5005006;28;20037;-77
2023/06/07 11:48:41;;;;;;;3.03;2.92;;;21.60;99.20;;;;;;5002041;28;20447;-77
2023/06/07 11:51:07;;;;;;;3.10;2.92;;;21.60;99.10;;;;;;4998922;28;20044;-77
2023/06/07 11:53:32;;;;;;;3.28;3.08;;;21.60;99.00;;;;;;5002011;28;20061;-77
2023/06/07 11:55:58;;;;;;;4.15;3.13;;;21.60;99.00;;;;;;5003706;28;20137;-77
2023/06/07 11:58:25;;;;;;;3.20;3.00;;;21.70;99.00;;;;;;5002539;28;20046;-77
2023/06/07 12:00:50;;;;;;;3.50;3.30;;;21.60;98.90;;;;;;5004785;28;20054;-77
2023/06/07 12:03:19;;;;;;;2.92;2.78;;;21.70;98.90;;;;;;5002434;28;20042;-77
2023/06/07 12:05:45;;;;;;;3.33;3.13;;;21.70;98.90;;;;;;5000365;28;20048;-77
2023/06/07 12:08:13;;;;;;;2.60;2.50;;;21.70;98.90;;;;;;5018987;28;20038;-79
2023/06/07 12:10:39;;;;;;;2.55;2.28;;;21.70;98.80;;;;;;4995474;28;20691;-78
2023/06/07 12:13:09;;;;;;;2.97;2.78;;;21.70;99.10;;;;;;5002843;28;20046;-78
2023/06/07 12:15:40;;;;;;;3.10;2.90;;;21.80;98.50;;;;;;5002866;28;20061;-77
2023/06/07 12:18:05;;;;;;;5.68;3.17;;;21.80;98.40;;;;;;5018095;28;20037;-77
2023/06/07 12:20:32;;;;;;;3.28;3.05;;;21.80;98.40;;;;;;4988211;28;20116;-77
2023/06/07 12:23:04;;;;;;;3.25;2.95;;;21.80;98.80;;;;;;4999157;28;20042;-76
2023/06/07 12:25:30;;;;;;;2.72;2.53;;;21.80;99.20;;;;;;5004076;28;20054;-77
2023/06/07 12:27:55;;;;;;;2.80;2.70;;;21.80;99.30;;;;;;4998927;28;20439;-77
2023/06/07 12:30:21;;;;;;;3.20;3.00;;;21.80;99.30;;;;;;5003459;28;20046;-78
2023/06/07 12:32:47;;;;;;;3.00;2.83;;;21.80;99.20;;;;;;4982887;28;20299;-77
2023/06/07 12:35:13;;;;;;;2.58;2.47;;;21.90;99.30;;;;;;4998309;28;20045;-77
2023/06/07 12:37:39;;;;;;;3.50;3.28;;;21.80;99.30;;;;;;5002431;28;20038;-77
2023/06/07 12:40:06;;;;;;;3.45;2.90;;;21.90;99.20;;;;;;4995449;28;20053;-77
2023/06/07 12:42:32;;;;;;;3.40;2.83;;;21.90;99.10;;;;;;5001842;28;20065;-79
2023/06/07 12:44:58;;;;;;;2.78;2.35;;;21.90;99.10;;;;;;5017657;28;20038;-77